Time;durP1;ratioP1;P1;durP2;ratioP2;P2;SDS_P1;SDS_P2;PMS_P1;PMS_P2;Temp;Humidity;BMP_temperature;BMP_pressure;BME280_temperature;BME280_humidity;BME280_pressure;Samples;Min_cycle;Max_cycle;Signal;HPM_P1;HPM_P2
2021/07/30 00:01:01;;;;;;;10.40;8.50;;;;;;;;;;4990615;28;20056;-49
2021/07/30 00:03:28;;;;;;;9.57;7.78;;;;;;;;;;4990177;28;20049;-49
2021/07/30 00:05:54;;;;;;;9.88;8.30;;;;;;;;;;4988354;28;20030;-50
2021/07/30 00:08:21;;;;;;;10.13;8.70;;;;;;;;;;4985190;28;20232;-52
2021/07/30 00:10:48;;;;;;;11.43;8.75;;;;;;;;;;4985344;28;20065;-49
2021/07/30 00:13:15;;;;;;;13.20;8.30;;;;;;;;;;4988305;28;20061;-49
2021/07/30 00:15:42;;;;;;;9.65;7.82;;;;;;;;;;4990092;28;20042;-51
2021/07/30 00:18:08;;;;;;;12.32;8.23;;;;;;;;;;4983069;28;20100;-52
2021/07/30 00:20:35;;;;;;;11.25;8.32;;;;;;;;;;4997081;28;20177;-53
2021/07/30 00:23:02;;;;;;;10.27;8.27;;;;;;;;;;4992405;28;20034;-54
2021/07/30 00:25:29;;;;;;;11.02;8.10;;;;;;;;;;4986090;28;20452;-54
2021/07/30 00:27:56;;;;;;;9.52;7.97;;;;;;;;;;4995660;28;20046;-55
2021/07/30 00:30:23;;;;;;;11.32;8.68;;;;;;;;;;4989597;28;20126;-53
2021/07/30 00:32:49;;;;;;;9.27;8.23;;;;;;;;;;5007745;28;20395;-53
2021/07/30 00:35:16;;;;;;;12.45;8.07;;;;;;;;;;4998742;28;20647;-51
2021/07/30 00:37:43;;;;;;;10.05;8.02;;;;;;;;;;5009598;28;20081;-51
2021/07/30 00:40:10;;;;;;;11.85;7.93;;;;;;;;;;4989060;28;20077;-50
2021/07/30 00:42:46;;;;;;;8.77;7.88;;;;;;;;;;4991068;28;20070;-52
2021/07/30 00:45:13;;;;;;;10.55;8.00;;;;;;;;;;4986110;28;20042;-51
2021/07/30 00:47:40;;;;;;;9.77;8.15;;;;;;;;;;4990566;28;20039;-50
2021/07/30 00:50:07;;;;;;;10.38;8.20;;;;;;;;;;4986335;28;20038;-52
2021/07/30 00:52:34;;;;;;;11.70;8.48;;;;;;;;;;5002707;28;20065;-51
2021/07/30 00:55:01;;;;;;;10.93;8.25;;;;;;;;;;5001378;28;20038;-52
2021/07/30 00:57:28;;;;;;;10.65;8.32;;;;;;;;;;4998767;28;20138;-49
2021/07/30 00:59:55;;;;;;;9.20;8.23;;;;;;;;;;4992051;28;20466;-51
2021/07/30 01:02:22;;;;;;;9.82;8.50;;;;;;;;;;5004821;28;20130;-50
2021/07/30 01:04:49;;;;;;;8.90;7.45;;;;;;;;;;5009201;28;20042;-51
2021/07/30 01:07:16;;;;;;;8.13;7.18;;;;;;;;;;5001494;28;20035;-52
2021/07/30 01:09:43;;;;;;;10.82;8.50;;;;;;;;;;5003960;28;20105;-52
2021/07/30 01:12:11;;;;;;;8.80;7.90;;;;;;;;;;4988258;28;20124;-51
2021/07/30 01:14:37;;;;;;;9.40;8.40;;;;;;;;;;4989475;28;20530;-50
2021/07/30 01:17:04;;;;;;;8.52;7.63;;;;;;;;;;4985632;28;20042;-51
2021/07/30 01:19:31;;;;;;;9.57;8.23;;;;;;;;;;5007122;28;20064;-53
2021/07/30 01:22:00;;;;;;;10.82;8.43;;;;;;;;;;5012637;28;20125;-53
2021/07/30 01:24:27;;;;;;;9.48;8.43;;;;;;;;;;4996614;28;20053;-53
2021/07/30 01:26:53;;;;;;;8.75;7.85;;;;;;;;;;4992901;28;20126;-52
2021/07/30 01:29:21;;;;;;;10.82;8.35;;;;;;;;;;4990903;28;20047;-52
2021/07/30 01:31:48;;;;;;;14.02;7.60;;;;;;;;;;5006060;28;20108;-54
2021/07/30 01:34:15;;;;;;;10.35;8.10;;;;;;;;;;5008854;28;20145;-50
2021/07/30 01:36:42;;;;;;;9.30;8.02;;;;;;;;;;4990572;28;20043;-53
2021/07/30 01:39:09;;;;;;;8.43;7.47;;;;;;;;;;5002585;28;20053;-50
2021/07/30 01:41:35;;;;;;;9.32;7.53;;;;;;;;;;4994367;28;20555;-48
2021/07/30 01:44:02;;;;;;;8.68;7.65;;;;;;;;;;4990570;28;20038;-48
2021/07/30 01:46:29;;;;;;;9.10;7.25;;;;;;;;;;4989000;28;20579;-48
2021/07/30 01:48:56;;;;;;;8.68;7.55;;;;;;;;;;5007249;28;20073;-51
2021/07/30 01:51:23;;;;;;;8.57;7.57;;;;;;;;;;5006828;28;21587;-51
2021/07/30 01:53:50;;;;;;;9.35;7.35;;;;;;;;;;4999218;28;20117;-52
2021/07/30 01:56:17;;;;;;;8.63;7.40;;;;;;;;;;4995820;28;20436;-56
2021/07/30 01:58:44;;;;;;;8.93;7.47;;;;;;;;;;4981465;28;20042;-46
2021/07/30 02:01:11;;;;;;;8.40;6.93;;;;;;;;;;4990398;28;20042;-55
2021/07/30 02:03:38;;;;;;;9.60;7.05;;;;;;;;;;5005194;28;20097;-48
2021/07/30 02:06:05;;;;;;;9.20;6.85;;;;;;;;;;4992031;28;20060;-44
2021/07/30 02:08:32;;;;;;;9.18;8.15;;;;;;;;;;5003177;28;20240;-49
2021/07/30 02:10:59;;;;;;;11.75;8.13;;;;;;;;;;4996389;28;20046;-44
2021/07/30 02:16:11;;;;;;;10.13;8.05;;;;;;;;;;4988851;28;20043;-53
2021/07/30 02:18:38;;;;;;;9.60;7.68;;;;;;;;;;4995945;28;20050;-53
2021/07/30 02:21:05;;;;;;;8.05;7.15;;;;;;;;;;5000430;28;20053;-45
2021/07/30 02:23:31;;;;;;;8.07;7.10;;;;;;;;;;5003768;28;20148;-46
2021/07/30 02:25:58;;;;;;;9.15;7.20;;;;;;;;;;4992175;28;20177;-50
2021/07/30 02:28:25;;;;;;;12.20;7.60;;;;;;;;;;4993826;28;20042;-48
2021/07/30 02:30:53;;;;;;;9.07;7.22;;;;;;;;;;4997269;28;20456;-49
2021/07/30 02:33:19;;;;;;;9.77;7.10;;;;;;;;;;5001066;28;20074;-49
2021/07/30 02:35:46;;;;;;;8.45;7.38;;;;;;;;;;4995339;28;20081;-47
2021/07/30 02:38:13;;;;;;;10.38;7.53;;;;;;;;;;4996093;28;20042;-49
2021/07/30 02:40:40;;;;;;;8.20;7.30;;;;;;;;;;4991150;28;20050;-47
2021/07/30 02:43:06;;;;;;;7.82;6.47;;;;;;;;;;4992697;28;20125;-48
2021/07/30 02:45:33;;;;;;;9.73;7.05;;;;;;;;;;4998328;28;20046;-47
2021/07/30 02:48:00;;;;;;;8.50;7.55;;;;;;;;;;4988784;28;20070;-44
2021/07/30 02:50:27;;;;;;;9.98;8.20;;;;;;;;;;5004059;28;20042;-54
2021/07/30 02:52:54;;;;;;;8.52;7.30;;;;;;;;;;4990720;28;20081;-51
2021/07/30 02:55:20;;;;;;;9.25;7.50;;;;;;;;;;4999270;28;20034;-53
2021/07/30 02:57:47;;;;;;;9.32;7.55;;;;;;;;;;4990928;28;20038;-55
2021/07/30 03:00:14;;;;;;;11.60;8.60;;;;;;;;;;4994412;28;20134;-48
2021/07/30 03:02:41;;;;;;;10.02;8.93;;;;;;;;;;5001580;28;20115;-50
2021/07/30 03:05:08;;;;;;;10.15;8.60;;;;;;;;;;4994121;28;20046;-48
2021/07/30 03:07:35;;;;;;;9.98;7.88;;;;;;;;;;4987712;28;20134;-51
2021/07/30 03:10:02;;;;;;;10.52;8.07;;;;;;;;;;5004512;28;20030;-51
2021/07/30 03:12:29;;;;;;;10.13;8.50;;;;;;;;;;4992011;28;20038;-52
2021/07/30 03:14:56;;;;;;;9.88;7.78;;;;;;;;;;4987062;28;20037;-53
2021/07/30 03:17:23;;;;;;;8.82;7.72;;;;;;;;;;4993446;28;20133;-52
2021/07/30 03:19:50;;;;;;;9.60;8.60;;;;;;;;;;5002271;28;20487;-53
2021/07/30 03:22:16;;;;;;;9.38;8.10;;;;;;;;;;4991888;28;20053;-54
2021/07/30 03:24:43;;;;;;;9.73;8.65;;;;;;;;;;4985817;28;20049;-52
2021/07/30 03:27:10;;;;;;;10.43;9.18;;;;;;;;;;4992411;28;20038;-54
2021/07/30 03:29:37;;;;;;;10.93;8.65;;;;;;;;;;4989490;28;20445;-51
2021/07/30 03:32:04;;;;;;;11.25;9.32;;;;;;;;;;5011463;28;20092;-53
2021/07/30 03:34:32;;;;;;;10.07;8.55;;;;;;;;;;4988392;28;20042;-54
2021/07/30 03:37:00;;;;;;;13.38;9.70;;;;;;;;;;5009050;28;20045;-52
2021/07/30 03:39:27;;;;;;;11.98;8.48;;;;;;;;;;4989997;28;20097;-50
2021/07/30 03:41:57;;;;;;;9.55;8.52;;;;;;;;;;4993485;28;20558;-55
2021/07/30 03:44:24;;;;;;;9.98;7.78;;;;;;;;;;4991475;28;20042;-54
2021/07/30 03:46:50;;;;;;;10.40;8.77;;;;;;;;;;4991911;28;20074;-50
2021/07/30 03:49:17;;;;;;;11.93;8.75;;;;;;;;;;4986888;28;20470;-52
2021/07/30 03:51:44;;;;;;;10.30;8.10;;;;;;;;;;4990860;28;20070;-53
2021/07/30 03:54:11;;;;;;;10.02;8.45;;;;;;;;;;4993537;28;20099;-55
2021/07/30 03:56:41;;;;;;;13.68;9.05;;;;;;;;;;5008612;28;20121;-49
2021/07/30 03:59:08;;;;;;;11.23;8.23;;;;;;;;;;4996986;28;20045;-48
2021/07/30 04:01:35;;;;;;;10.20;8.13;;;;;;;;;;5001920;28;20046;-52
2021/07/30 04:04:03;;;;;;;9.77;8.18;;;;;;;;;;4987852;28;20101;-50
2021/07/30 04:06:30;;;;;;;9.98;7.80;;;;;;;;;;4996752;28;20041;-47
2021/07/30 04:08:56;;;;;;;12.18;8.50;;;;;;;;;;4971808;28;20051;-52
2021/07/30 04:11:23;;;;;;;14.40;9.25;;;;;;;;;;4987165;28;20122;-54
2021/07/30 04:13:51;;;;;;;13.02;8.57;;;;;;;;;;4989495;28;20054;-55
2021/07/30 04:16:17;;;;;;;11.00;8.18;;;;;;;;;;5001643;28;20039;-52
2021/07/30 04:18:44;;;;;;;9.57;7.40;;;;;;;;;;4973694;28;20511;-52
2021/07/30 04:21:11;;;;;;;10.13;7.93;;;;;;;;;;4992218;28;20519;-51
2021/07/30 04:23:38;;;;;;;9.65;7.63;;;;;;;;;;4987641;28;20046;-52
2021/07/30 04:26:07;;;;;;;10.38;7.78;;;;;;;;;;5003697;28;20042;-49
2021/07/30 04:28:34;;;;;;;10.85;7.35;;;;;;;;;;5020155;28;20479;-50
2021/07/30 04:31:04;;;;;;;11.82;7.82;;;;;;;;;;4994018;28;20499;-53
2021/07/30 04:33:34;;;;;;;9.70;7.90;;;;;;;;;;5000753;28;20130;-51
2021/07/30 04:36:04;;;;;;;8.82;7.70;;;;;;;;;;4992307;28;20046;-52
2021/07/30 04:38:31;;;;;;;10.20;7.72;;;;;;;;;;4998637;28;20510;-49
2021/07/30 04:40:58;;;;;;;11.07;8.00;;;;;;;;;;4988574;28;20042;-52
2021/07/30 04:43:25;;;;;;;9.20;7.40;;;;;;;;;;4987525;28;20046;-50
2021/07/30 04:45:51;;;;;;;9.05;7.45;;;;;;;;;;5001229;28;20041;-49
2021/07/30 04:48:18;;;;;;;9.45;7.82;;;;;;;;;;4991803;28;20046;-48
2021/07/30 04:50:45;;;;;;;9.18;8.18;;;;;;;;;;4991403;28;20492;-49
2021/07/30 04:53:12;;;;;;;13.70;8.43;;;;;;;;;;4996258;28;20602;-51
2021/07/30 04:55:39;;;;;;;13.02;8.30;;;;;;;;;;4991099;28;20121;-51
2021/07/30 04:58:05;;;;;;;13.25;8.25;;;;;;;;;;4984742;28;20073;-51
2021/07/30 05:00:32;;;;;;;12.45;8.40;;;;;;;;;;4999503;28;20162;-53
2021/07/30 05:02:59;;;;;;;10.75;7.75;;;;;;;;;;4996269;28;20045;-51
2021/07/30 05:05:30;;;;;;;15.38;8.40;;;;;;;;;;5000956;28;20039;-50
2021/07/30 05:07:57;;;;;;;8.90;7.65;;;;;;;;;;4986131;28;20035;-49
2021/07/30 05:10:23;;;;;;;11.60;7.82;;;;;;;;;;4992939;28;20419;-51
2021/07/30 05:12:50;;;;;;;10.45;8.07;;;;;;;;;;5002486;28;20583;-52
2021/07/30 05:15:17;;;;;;;12.02;8.13;;;;;;;;;;4996938;28;20073;-49
2021/07/30 05:17:44;;;;;;;10.70;7.95;;;;;;;;;;4991968;28;20455;-52
2021/07/30 05:20:11;;;;;;;9.60;7.68;;;;;;;;;;4997273;28;20073;-51
2021/07/30 05:22:39;;;;;;;8.85;7.30;;;;;;;;;;5014935;28;20129;-50
2021/07/30 05:25:06;;;;;;;10.75;7.63;;;;;;;;;;4992818;28;20042;-48
2021/07/30 05:27:32;;;;;;;10.75;8.00;;;;;;;;;;4974951;28;20114;-50
2021/07/30 05:29:59;;;;;;;10.68;8.30;;;;;;;;;;4982093;28;20412;-51
2021/07/30 05:32:26;;;;;;;10.15;8.70;;;;;;;;;;5001284;28;20034;-50
2021/07/30 05:34:53;;;;;;;11.88;7.65;;;;;;;;;;4994726;28;20050;-51
2021/07/30 05:37:19;;;;;;;9.75;7.75;;;;;;;;;;4993901;28;20074;-49
2021/07/30 05:39:46;;;;;;;12.00;7.10;;;;;;;;;;4993140;28;20038;-50
2021/07/30 05:42:13;;;;;;;9.95;7.53;;;;;;;;;;5005104;28;20042;-48
2021/07/30 05:44:40;;;;;;;9.10;7.05;;;;;;;;;;4991502;28;20113;-52
2021/07/30 05:47:07;;;;;;;11.23;6.88;;;;;;;;;;4988861;28;20042;-49
2021/07/30 05:49:35;;;;;;;8.30;6.32;;;;;;;;;;4979848;28;20621;-52
2021/07/30 05:52:01;;;;;;;12.30;6.70;;;;;;;;;;4993810;28;20091;-52
2021/07/30 05:54:30;;;;;;;9.48;6.80;;;;;;;;;;4992609;28;20044;-53
2021/07/30 05:56:57;;;;;;;10.18;6.38;;;;;;;;;;4994697;28;20050;-46
2021/07/30 05:59:24;;;;;;;8.00;5.68;;;;;;;;;;4991235;28;20451;-53
2021/07/30 06:01:51;;;;;;;10.63;6.40;;;;;;;;;;4993951;28;20105;-52
2021/07/30 06:04:18;;;;;;;7.47;6.03;;;;;;;;;;4993689;28;20145;-50
2021/07/30 06:06:44;;;;;;;7.25;5.80;;;;;;;;;;4993119;28;20043;-53
2021/07/30 06:09:12;;;;;;;8.00;6.35;;;;;;;;;;4975153;28;20173;-46
2021/07/30 06:11:39;;;;;;;8.68;6.78;;;;;;;;;;4992463;28;20042;-54
2021/07/30 06:14:05;;;;;;;9.15;6.10;;;;;;;;;;5007984;28;20046;-53
2021/07/30 06:16:32;;;;;;;10.95;6.38;;;;;;;;;;4980885;28;20081;-55
2021/07/30 06:19:04;;;;;;;9.38;7.07;;;;;;;;;;4974326;28;20047;-48
2021/07/30 06:21:32;;;;;;;8.20;7.00;;;;;;;;;;4994286;28;20058;-55
2021/07/30 06:24:00;;;;;;;10.73;8.30;;;;;;;;;;4984337;28;20047;-52
2021/07/30 06:26:26;;;;;;;11.73;7.85;;;;;;;;;;4994710;28;20566;-50
2021/07/30 06:28:53;;;;;;;9.82;6.97;;;;;;;;;;4993665;28;20104;-49
2021/07/30 06:31:20;;;;;;;9.50;7.03;;;;;;;;;;4991826;28;20042;-47
2021/07/30 06:33:47;;;;;;;13.82;7.95;;;;;;;;;;4991947;28;20153;-47
2021/07/30 06:36:17;;;;;;;8.90;7.43;;;;;;;;;;4992418;28;20077;-45
2021/07/30 06:38:45;;;;;;;11.43;7.70;;;;;;;;;;4986954;28;20057;-53
2021/07/30 06:41:14;;;;;;;9.63;8.00;;;;;;;;;;4992582;28;20073;-53
2021/07/30 06:43:41;;;;;;;9.90;7.35;;;;;;;;;;4991444;28;20160;-50
2021/07/30 06:46:08;;;;;;;13.32;7.25;;;;;;;;;;4981551;28;20074;-51
2021/07/30 06:48:35;;;;;;;12.02;6.93;;;;;;;;;;4990302;28;20105;-52
2021/07/30 06:51:02;;;;;;;13.60;8.98;;;;;;;;;;4989883;28;20069;-48
2021/07/30 06:53:29;;;;;;;10.23;7.78;;;;;;;;;;4984144;28;20066;-53
2021/07/30 06:55:56;;;;;;;10.52;7.82;;;;;;;;;;4987110;28;20455;-50
2021/07/30 06:58:23;;;;;;;10.23;7.63;;;;;;;;;;4992943;28;20101;-51
2021/07/30 07:00:50;;;;;;;12.30;7.40;;;;;;;;;;4991343;28;20042;-52
2021/07/30 07:03:20;;;;;;;10.02;7.13;;;;;;;;;;5023732;28;20050;-50
2021/07/30 07:05:47;;;;;;;9.00;6.78;;;;;;;;;;4986906;28;20042;-49
2021/07/30 07:08:14;;;;;;;10.13;7.00;;;;;;;;;;4984754;28;20062;-53
2021/07/30 07:10:41;;;;;;;8.57;6.68;;;;;;;;;;4990354;28;20538;-45
2021/07/30 07:13:08;;;;;;;8.85;7.63;;;;;;;;;;4987073;28;20042;-46
2021/07/30 07:15:44;;;;;;;9.35;7.07;;;;;;;;;;4986752;28;20441;-49
2021/07/30 07:18:11;;;;;;;9.60;7.43;;;;;;;;;;4988466;28;20097;-57
2021/07/30 07:20:39;;;;;;;8.43;6.85;;;;;;;;;;5020757;28;20454;-50
2021/07/30 07:23:06;;;;;;;8.80;6.97;;;;;;;;;;4989976;28;20046;-54
2021/07/30 07:25:34;;;;;;;9.20;7.05;;;;;;;;;;4985103;28;20054;-54
2021/07/30 07:28:00;;;;;;;10.27;7.30;;;;;;;;;;4983995;28;20050;-50
2021/07/30 07:30:27;;;;;;;8.32;7.28;;;;;;;;;;5001547;28;20049;-51
2021/07/30 07:32:54;;;;;;;8.07;7.03;;;;;;;;;;5010747;28;20108;-51
2021/07/30 07:35:21;;;;;;;9.63;7.00;;;;;;;;;;5011250;28;20054;-54
2021/07/30 07:37:48;;;;;;;10.68;7.30;;;;;;;;;;5014485;28;20100;-51
2021/07/30 07:40:15;;;;;;;8.05;6.90;;;;;;;;;;5007180;28;20045;-50
2021/07/30 07:42:41;;;;;;;8.40;6.95;;;;;;;;;;5014745;28;20074;-55
2021/07/30 07:45:08;;;;;;;9.02;7.00;;;;;;;;;;5013384;28;20049;-54
2021/07/30 07:47:35;;;;;;;10.85;7.53;;;;;;;;;;4996680;28;20047;-48
2021/07/30 07:50:03;;;;;;;10.02;6.97;;;;;;;;;;4996803;28;20070;-51
2021/07/30 07:52:32;;;;;;;11.20;7.57;;;;;;;;;;4998867;28;20495;-48
2021/07/30 07:55:08;;;;;;;9.43;7.15;;;;;;;;;;4994650;28;20065;-49
2021/07/30 07:57:38;;;;;;;8.73;7.25;;;;;;;;;;4984936;28;20077;-49
2021/07/30 08:00:05;;;;;;;8.85;6.95;;;;;;;;;;4981463;28;20039;-54
2021/07/30 08:02:37;;;;;;;8.02;6.53;;;;;;;;;;4974282;28;20047;-53
2021/07/30 08:05:05;;;;;;;9.40;7.40;;;;;;;;;;5005781;28;20043;-50
2021/07/30 08:07:32;;;;;;;9.57;6.78;;;;;;;;;;4992511;28;20165;-50
2021/07/30 08:09:59;;;;;;;10.77;7.68;;;;;;;;;;5001713;28;20100;-45
2021/07/30 08:12:26;;;;;;;10.70;7.10;;;;;;;;;;5011870;28;20153;-49
2021/07/30 08:14:52;;;;;;;8.48;6.97;;;;;;;;;;5012753;28;20089;-48
2021/07/30 08:17:19;;;;;;;9.40;7.00;;;;;;;;;;4999293;28;20037;-45
2021/07/30 08:19:50;;;;;;;7.78;6.97;;;;;;;;;;5009772;28;20053;-48
2021/07/30 08:22:18;;;;;;;7.82;6.70;;;;;;;;;;5011049;28;20360;-45
2021/07/30 08:24:44;;;;;;;7.82;6.72;;;;;;;;;;5007691;28;20474;-47
2021/07/30 08:27:14;;;;;;;8.27;7.25;;;;;;;;;;5006878;28;20038;-44
2021/07/30 08:29:44;;;;;;;8.95;6.68;;;;;;;;;;4993377;28;20039;-48
2021/07/30 08:32:11;;;;;;;7.78;6.75;;;;;;;;;;4993066;28;20034;-47
2021/07/30 08:34:40;;;;;;;8.82;7.30;;;;;;;;;;4999652;28;20514;-46
2021/07/30 08:37:07;;;;;;;7.90;6.32;;;;;;;;;;4987426;28;20097;-48
2021/07/30 08:39:34;;;;;;;7.68;6.88;;;;;;;;;;4997088;28;20069;-45
2021/07/30 08:42:02;;;;;;;8.98;6.55;;;;;;;;;;5000609;28;20037;-46
2021/07/30 08:44:29;;;;;;;7.13;6.38;;;;;;;;;;4992970;28;20432;-49
2021/07/30 08:46:56;;;;;;;8.25;6.82;;;;;;;;;;4987067;28;20034;-47
2021/07/30 08:49:23;;;;;;;10.07;7.00;;;;;;;;;;4971944;28;20046;-53
2021/07/30 08:51:50;;;;;;;7.78;6.88;;;;;;;;;;5004484;28;20076;-52
2021/07/30 08:54:17;;;;;;;8.75;6.88;;;;;;;;;;4996264;28;20039;-48
2021/07/30 08:56:45;;;;;;;7.82;6.30;;;;;;;;;;4995385;28;20047;-49
2021/07/30 08:59:12;;;;;;;9.15;6.80;;;;;;;;;;4980191;28;20060;-48
2021/07/30 09:01:39;;;;;;;7.15;6.45;;;;;;;;;;4972504;28;20508;-49
2021/07/30 09:04:06;;;;;;;9.95;6.95;;;;;;;;;;4992875;28;20054;-48
2021/07/30 09:06:33;;;;;;;9.35;6.40;;;;;;;;;;5009148;28;20133;-49
2021/07/30 09:09:02;;;;;;;8.50;6.72;;;;;;;;;;5005673;28;20061;-50
2021/07/30 09:11:30;;;;;;;9.10;7.10;;;;;;;;;;5000289;28;20384;-52
2021/07/30 09:13:59;;;;;;;7.30;6.38;;;;;;;;;;5009729;28;20064;-54
2021/07/30 09:16:26;;;;;;;11.13;7.03;;;;;;;;;;5004380;28;20050;-53
2021/07/30 09:18:53;;;;;;;7.72;6.78;;;;;;;;;;4997178;28;20505;-50
2021/07/30 09:21:21;;;;;;;7.72;6.78;;;;;;;;;;5009601;28;20092;-50
2021/07/30 09:23:52;;;;;;;8.38;7.05;;;;;;;;;;5010046;28;20046;-50
2021/07/30 09:26:39;;;;;;;7.43;6.60;;;;;;;;;;4990416;28;20444;-52
2021/07/30 09:29:38;;;;;;;9.27;6.63;;;;;;;;;;4983032;28;20130;-48
2021/07/30 09:32:06;;;;;;;7.13;6.40;;;;;;;;;;4992895;28;20046;-53
2021/07/30 09:34:39;;;;;;;8.73;7.03;;;;;;;;;;4988245;28;20497;-51
2021/07/30 09:37:06;;;;;;;;;;;;;;;;;;4994037;28;20042;-53
2021/07/30 09:39:33;;;;;;;8.15;6.60;;;;;;;;;;4988159;28;19925;-53
2021/07/30 09:42:04;;;;;;;8.52;6.43;;;;;;;;;;4978450;28;20042;-51
2021/07/30 09:44:32;;;;;;;8.75;6.88;;;;;;;;;;5000545;28;20050;-54
2021/07/30 09:47:06;;;;;;;7.65;6.32;;;;;;;;;;4994291;28;20702;-50
2021/07/30 09:49:37;;;;;;;8.18;6.18;;;;;;;;;;4991255;28;20647;-46
2021/07/30 09:52:06;;;;;;;6.55;5.85;;;;;;;;;;4999282;28;20069;-49
2021/07/30 09:54:32;;;;;;;9.07;5.85;;;;;;;;;;5006487;28;20078;-50
2021/07/30 09:57:01;;;;;;;7.43;6.53;;;;;;;;;;4992667;28;20048;-49
2021/07/30 09:59:28;;;;;;;7.60;5.78;;;;;;;;;;4996541;28;20144;-47
2021/07/30 10:01:59;;;;;;;8.15;6.03;;;;;;;;;;4993046;28;20417;-55
2021/07/30 10:04:27;;;;;;;7.35;5.95;;;;;;;;;;5002767;28;20446;-50
2021/07/30 10:06:54;;;;;;;7.60;6.05;;;;;;;;;;5005269;28;20685;-46
2021/07/30 10:09:21;;;;;;;7.30;6.40;;;;;;;;;;4981749;28;20700;-49
2021/07/30 10:11:48;;;;;;;7.80;6.53;;;;;;;;;;4995984;28;20043;-46
2021/07/30 10:14:17;;;;;;;6.97;6.28;;;;;;;;;;4992796;28;20392;-46
2021/07/30 10:17:04;;;;;;;11.23;6.90;;;;;;;;;;5001077;28;20159;-52
2021/07/30 10:19:34;;;;;;;9.82;5.90;;;;;;;;;;4996781;28;20129;-47
2021/07/30 10:22:02;;;;;;;8.35;6.28;;;;;;;;;;5024270;22;20069;-53
2021/07/30 10:24:32;;;;;;;8.45;6.82;;;;;;;;;;5017167;28;20046;-56
2021/07/30 10:27:04;;;;;;;7.68;5.97;;;;;;;;;;5015606;28;20041;-53
2021/07/30 10:30:09;;;;;;;9.20;6.25;;;;;;;;;;4994011;28;20126;-52
2021/07/30 10:32:48;;;;;;;8.55;6.50;;;;;;;;;;4934357;29;20475;-56
2021/07/30 10:35:18;;;;;;;10.20;6.43;;;;;;;;;;4935470;29;20052;-50
2021/07/30 10:37:45;;;;;;;8.45;6.40;;;;;;;;;;4967853;28;20081;-50
2021/07/30 10:40:13;;;;;;;8.57;6.30;;;;;;;;;;4993836;28;20038;-55
2021/07/30 10:42:59;;;;;;;6.65;5.82;;;;;;;;;;4994536;28;20491;-51
2021/07/30 10:45:26;;;;;;;7.75;5.85;;;;;;;;;;4994180;28;20500;-50
2021/07/30 10:48:11;;;;;;;8.05;5.97;;;;;;;;;;4994182;28;20065;-49
2021/07/30 10:50:41;;;;;;;7.53;5.88;;;;;;;;;;4991095;28;21134;-52
2021/07/30 10:53:27;;;;;;;6.25;5.25;;;;;;;;;;4987757;28;20047;-54
2021/07/30 10:55:54;;;;;;;9.75;6.07;;;;;;;;;;4989545;28;20076;-49
2021/07/30 10:58:20;;;;;;;10.27;6.35;;;;;;;;;;4993683;28;20050;-54
2021/07/30 11:00:54;;;;;;;7.55;6.15;;;;;;;;;;4989840;28;20051;-52
2021/07/30 11:03:21;;;;;;;7.88;6.43;;;;;;;;;;4995785;28;20057;-52
2021/07/30 11:06:07;;;;;;;7.97;5.70;;;;;;;;;;4992212;28;20045;-52
2021/07/30 11:08:52;;;;;;;6.93;6.15;;;;;;;;;;4990608;28;20044;-50
2021/07/30 11:11:38;;;;;;;6.53;5.70;;;;;;;;;;4979423;28;20042;-50
2021/07/30 11:14:06;;;;;;;7.13;6.43;;;;;;;;;;4992039;28;20058;-51
2021/07/30 11:16:34;;;;;;;6.50;5.55;;;;;;;;;;4994375;28;20042;-56
2021/07/30 11:19:02;;;;;;;9.88;5.72;;;;;;;;;;4992490;28;20047;-52
2021/07/30 11:21:29;;;;;;;6.35;5.28;;;;;;;;;;4997245;28;20544;-56
2021/07/30 11:23:59;;;;;;;7.70;5.40;;;;;;;;;;4996313;28;20104;-50
2021/07/30 11:26:27;;;;;;;7.85;6.22;;;;;;;;;;4987389;28;20496;-49
2021/07/30 11:29:00;;;;;;;7.53;5.65;;;;;;;;;;4988238;28;20077;-50
2021/07/30 11:31:27;;;;;;;9.55;5.35;;;;;;;;;;4992274;28;20066;-56
2021/07/30 11:33:57;;;;;;;6.75;5.60;;;;;;;;;;5016169;28;20130;-54
2021/07/30 11:36:23;;;;;;;7.72;5.30;;;;;;;;;;4992743;28;20141;-49
2021/07/30 11:38:50;;;;;;;6.78;5.78;;;;;;;;;;4989926;28;20629;-52
2021/07/30 11:41:18;;;;;;;8.35;5.75;;;;;;;;;;4991300;28;20046;-51
2021/07/30 11:44:04;;;;;;;6.60;5.90;;;;;;;;;;4992577;28;20137;-53
2021/07/30 11:46:31;;;;;;;6.40;5.60;;;;;;;;;;4991273;28;20069;-53
2021/07/30 11:48:59;;;;;;;6.65;6.03;;;;;;;;;;4990116;28;20034;-52
2021/07/30 11:51:26;;;;;;;6.85;5.40;;;;;;;;;;4992494;28;20638;-48
2021/07/30 11:53:54;;;;;;;6.97;5.32;;;;;;;;;;4991185;28;20048;-51
2021/07/30 11:56:21;;;;;;;5.82;5.22;;;;;;;;;;4992404;28;20085;-49
2021/07/30 11:58:58;;;;;;;5.22;4.70;;;;;;;;;;4989810;28;20109;-51
2021/07/30 12:01:25;;;;;;;6.20;5.60;;;;;;;;;;4992943;28;20677;-54
2021/07/30 12:04:05;;;;;;;6.63;5.93;;;;;;;;;;4977529;28;20419;-54
2021/07/30 12:06:35;;;;;;;6.63;5.72;;;;;;;;;;4978485;28;20047;-55
2021/07/30 12:09:02;;;;;;;6.70;5.55;;;;;;;;;;4995553;28;20101;-54
2021/07/30 12:11:29;;;;;;;7.32;6.10;;;;;;;;;;4999676;28;20058;-51
2021/07/30 12:13:56;;;;;;;6.85;5.88;;;;;;;;;;4998225;28;20046;-54
2021/07/30 12:16:23;;;;;;;6.88;5.45;;;;;;;;;;4997210;28;20110;-55
2021/07/30 12:18:50;;;;;;;8.15;5.82;;;;;;;;;;4998542;28;20042;-55
2021/07/30 12:21:17;;;;;;;5.60;5.00;;;;;;;;;;4999251;28;20510;-53
2021/07/30 12:23:44;;;;;;;5.70;4.82;;;;;;;;;;4980661;28;20038;-55
2021/07/30 12:26:30;;;;;;;6.03;5.05;;;;;;;;;;4990820;28;20069;-49
2021/07/30 12:28:57;;;;;;;6.50;4.90;;;;;;;;;;4987402;28;20046;-49
2021/07/30 12:31:24;;;;;;;5.95;5.35;;;;;;;;;;4986186;28;20125;-50
2021/07/30 12:34:11;;;;;;;7.70;6.05;;;;;;;;;;4981659;28;20098;-49
2021/07/30 12:36:37;;;;;;;6.57;4.93;;;;;;;;;;4996296;28;20034;-50
2021/07/30 12:39:05;;;;;;;7.25;5.13;;;;;;;;;;4991157;28;20439;-53
2021/07/30 12:41:36;;;;;;;7.45;5.47;;;;;;;;;;4983559;28;20117;-55
2021/07/30 12:44:09;;;;;;;6.93;5.50;;;;;;;;;;4995688;28;20090;-52
2021/07/30 12:46:43;;;;;;;9.82;6.03;;;;;;;;;;4993216;28;20038;-53
2021/07/30 12:49:11;;;;;;;10.35;5.80;;;;;;;;;;4989612;28;20045;-48
2021/07/30 12:51:38;;;;;;;8.18;6.25;;;;;;;;;;4989914;28;20504;-51
2021/07/30 12:54:12;;;;;;;8.30;5.45;;;;;;;;;;4981149;28;20046;-51
2021/07/30 12:56:57;;;;;;;7.50;5.70;;;;;;;;;;5006482;28;20061;-48
2021/07/30 12:59:42;;;;;;;7.82;5.38;;;;;;;;;;4989591;28;20092;-49
2021/07/30 13:02:09;;;;;;;6.68;5.97;;;;;;;;;;4991540;28;20047;-52
2021/07/30 13:04:36;;;;;;;10.20;5.82;;;;;;;;;;4991311;28;20479;-49
2021/07/30 13:07:03;;;;;;;5.85;5.13;;;;;;;;;;4990520;28;20229;-49
2021/07/30 13:09:30;;;;;;;7.50;5.22;;;;;;;;;;4990707;28;20047;-51
2021/07/30 13:11:57;;;;;;;7.93;5.90;;;;;;;;;;4990434;28;20093;-51
2021/07/30 13:14:23;;;;;;;10.10;5.82;;;;;;;;;;4991210;28;20038;-51
2021/07/30 13:16:50;;;;;;;6.32;5.13;;;;;;;;;;4991334;28;20156;-49
2021/07/30 13:19:17;;;;;;;7.45;5.68;;;;;;;;;;4988235;28;20122;-51
2021/07/30 13:21:44;;;;;;;7.63;5.40;;;;;;;;;;4990632;28;20105;-52
2021/07/30 13:24:11;;;;;;;7.40;5.47;;;;;;;;;;4993090;28;20074;-50
2021/07/30 13:26:38;;;;;;;8.32;5.80;;;;;;;;;;4989177;28;20043;-48
2021/07/30 13:29:04;;;;;;;8.13;5.80;;;;;;;;;;4991300;28;20121;-51
2021/07/30 13:31:31;;;;;;;8.45;5.88;;;;;;;;;;5009548;28;20089;-48
2021/07/30 13:33:58;;;;;;;6.38;5.50;;;;;;;;;;4995137;28;20139;-49
2021/07/30 13:36:25;;;;;;;6.60;5.90;;;;;;;;;;4995134;28;20492;-50
2021/07/30 13:38:52;;;;;;;9.45;5.47;;;;;;;;;;4988902;28;20125;-50
2021/07/30 13:41:19;;;;;;;7.13;5.88;;;;;;;;;;4991078;28;20053;-50
2021/07/30 13:43:46;;;;;;;6.68;5.60;;;;;;;;;;4991448;28;20081;-48
2021/07/30 13:46:12;;;;;;;7.18;5.53;;;;;;;;;;4992665;28;20038;-53
2021/07/30 13:48:40;;;;;;;5.70;5.10;;;;;;;;;;4991638;28;20041;-53
2021/07/30 13:51:06;;;;;;;7.05;5.18;;;;;;;;;;4993537;28;20066;-50
2021/07/30 13:53:35;;;;;;;5.88;5.28;;;;;;;;;;4976257;28;20047;-51
2021/07/30 13:56:02;;;;;;;7.68;5.55;;;;;;;;;;4984261;28;20491;-48
2021/07/30 13:58:29;;;;;;;7.22;4.88;;;;;;;;;;4992368;28;20487;-49
2021/07/30 14:00:56;;;;;;;8.15;5.43;;;;;;;;;;4992909;28;20038;-52
2021/07/30 14:03:23;;;;;;;9.10;6.05;;;;;;;;;;4993883;28;20046;-52
2021/07/30 14:05:54;;;;;;;7.57;5.65;;;;;;;;;;4992660;28;20125;-52
2021/07/30 14:08:22;;;;;;;6.55;5.07;;;;;;;;;;4991449;28;20074;-52
2021/07/30 14:10:48;;;;;;;6.28;5.43;;;;;;;;;;4991276;28;20042;-47
2021/07/30 14:13:15;;;;;;;6.07;5.47;;;;;;;;;;4990234;28;20121;-47
2021/07/30 14:15:46;;;;;;;7.90;5.50;;;;;;;;;;4991554;28;20105;-48
2021/07/30 14:18:12;;;;;;;5.80;5.20;;;;;;;;;;4992606;28;20046;-51
2021/07/30 14:20:39;;;;;;;7.00;5.82;;;;;;;;;;4991406;28;20109;-47
2021/07/30 14:23:06;;;;;;;7.88;5.45;;;;;;;;;;5007566;28;20058;-50
2021/07/30 14:25:33;;;;;;;5.95;5.30;;;;;;;;;;4993467;28;20594;-48
2021/07/30 14:28:05;;;;;;;6.07;5.13;;;;;;;;;;4981702;28;20074;-51
2021/07/30 14:30:35;;;;;;;6.10;5.20;;;;;;;;;;4987430;28;20112;-47
2021/07/30 14:33:02;;;;;;;6.93;5.45;;;;;;;;;;4986939;28;20444;-50
2021/07/30 14:35:28;;;;;;;7.90;5.47;;;;;;;;;;4991319;28;20038;-54
2021/07/30 14:37:55;;;;;;;11.00;5.18;;;;;;;;;;4993417;28;20364;-50
2021/07/30 14:40:22;;;;;;;5.88;5.00;;;;;;;;;;4991935;28;20431;-50
2021/07/30 14:42:49;;;;;;;7.78;5.13;;;;;;;;;;4992742;28;20121;-49
2021/07/30 14:45:16;;;;;;;7.63;5.38;;;;;;;;;;4992681;28;20054;-51
2021/07/30 14:47:42;;;;;;;6.85;5.25;;;;;;;;;;4990676;28;20039;-47
2021/07/30 14:50:09;;;;;;;6.20;5.30;;;;;;;;;;4991381;28;20088;-47